sensor_id;sensor_type;location;lat;lon;timestamp;temperature;humidity
14170;DHT22;63889;50.596;8.690;2023-04-29T00:02:08;13.50;99.90
14170;DHT22;63889;50.596;8.690;2023-04-29T00:04:34;13.50;99.90
14170;DHT22;63889;50.596;8.690;2023-04-29T00:06:59;13.50;99.90
14170;DHT22;63889;50.596;8.690;2023-04-29T00:09:25;13.50;99.90
14170;DHT22;63889;50.596;8.690;2023-04-29T00:11:50;13.50;99.90
14170;DHT22;63889;50.596;8.690;2023-04-29T00:14:16;13.60;99.90
14170;DHT22;63889;50.596;8.690;2023-04-29T00:16:42;13.50;99.90
14170;DHT22;63889;50.596;8.690;2023-04-29T00:19:07;13.50;99.90
14170;DHT22;63889;50.596;8.690;2023-04-29T00:21:33;13.50;99.90
14170;DHT22;63889;50.596;8.690;2023-04-29T00:23:58;13.60;99.90
14170;DHT22;63889;50.596;8.690;2023-04-29T00:26:24;13.60;99.90
14170;DHT22;63889;50.596;8.690;2023-04-29T00:28:50;13.60;99.90
14170;DHT22;63889;50.596;8.690;2023-04-29T00:31:15;13.60;99.90
14170;DHT22;63889;50.596;8.690;2023-04-29T00:33:41;13.60;99.90
14170;DHT22;63889;50.596;8.690;2023-04-29T00:36:08;13.50;99.90
14170;DHT22;63889;50.596;8.690;2023-04-29T00:38:33;13.50;99.90
14170;DHT22;63889;50.596;8.690;2023-04-29T00:40:59;13.50;99.90
14170;DHT22;63889;50.596;8.690;2023-04-29T00:43:25;13.50;99.90
14170;DHT22;63889;50.596;8.690;2023-04-29T00:45:50;13.40;99.90
14170;DHT22;63889;50.596;8.690;2023-04-29T00:48:16;13.50;99.90
14170;DHT22;63889;50.596;8.690;2023-04-29T00:50:42;13.50;99.90
14170;DHT22;63889;50.596;8.690;2023-04-29T00:53:11;13.50;99.90
14170;DHT22;63889;50.596;8.690;2023-04-29T00:55:40;13.50;99.90
14170;DHT22;63889;50.596;8.690;2023-04-29T00:58:05;13.60;99.90
14170;DHT22;63889;50.596;8.690;2023-04-29T01:00:32;13.70;99.90
14170;DHT22;63889;50.596;8.690;2023-04-29T01:02:58;13.70;99.90
14170;DHT22;63889;50.596;8.690;2023-04-29T01:05:24;13.70;99.90
14170;DHT22;63889;50.596;8.690;2023-04-29T01:07:58;13.70;99.90
14170;DHT22;63889;50.596;8.690;2023-04-29T01:10:30;13.70;99.90
14170;DHT22;63889;50.596;8.690;2023-04-29T01:13:13;13.70;99.90
14170;DHT22;63889;50.596;8.690;2023-04-29T01:16:03;13.60;99.90
14170;DHT22;63889;50.596;8.690;2023-04-29T01:18:40;13.60;99.90
14170;DHT22;63889;50.596;8.690;2023-04-29T01:21:07;13.60;99.90
14170;DHT22;63889;50.596;8.690;2023-04-29T01:23:33;13.70;99.90
14170;DHT22;63889;50.596;8.690;2023-04-29T01:25:59;13.70;99.90
14170;DHT22;63889;50.596;8.690;2023-04-29T01:31:29;13.80;99.90
14170;DHT22;63889;50.596;8.690;2023-04-29T01:34:18;13.80;99.90
14170;DHT22;63889;50.596;8.690;2023-04-29T01:39:32;13.80;99.90
14170;DHT22;63889;50.596;8.690;2023-04-29T01:42:17;13.80;99.90
14170;DHT22;63889;50.596;8.690;2023-04-29T01:44:46;13.80;99.90
14170;DHT22;63889;50.596;8.690;2023-04-29T01:47:13;13.70;99.90
14170;DHT22;63889;50.596;8.690;2023-04-29T01:49:39;13.70;99.90
14170;DHT22;63889;50.596;8.690;2023-04-29T01:52:05;13.70;99.90
14170;DHT22;63889;50.596;8.690;2023-04-29T01:54:31;13.70;99.90
14170;DHT22;63889;50.596;8.690;2023-04-29T01:57:01;13.70;99.90
14170;DHT22;63889;50.596;8.690;2023-04-29T01:59:26;13.80;99.90
14170;DHT22;63889;50.596;8.690;2023-04-29T02:01:52;13.80;99.90
14170;DHT22;63889;50.596;8.690;2023-04-29T02:04:18;13.70;99.90
14170;DHT22;63889;50.596;8.690;2023-04-29T02:06:43;13.70;99.90
14170;DHT22;63889;50.596;8.690;2023-04-29T02:09:09;13.70;99.90
14170;DHT22;63889;50.596;8.690;2023-04-29T02:11:34;13.60;99.90
14170;DHT22;63889;50.596;8.690;2023-04-29T02:14:00;13.60;99.90
14170;DHT22;63889;50.596;8.690;2023-04-29T02:16:25;13.50;99.90
14170;DHT22;63889;50.596;8.690;2023-04-29T02:18:51;13.60;99.90
14170;DHT22;63889;50.596;8.690;2023-04-29T02:21:17;13.50;99.90
14170;DHT22;63889;50.596;8.690;2023-04-29T02:23:42;13.50;99.90
14170;DHT22;63889;50.596;8.690;2023-04-29T02:26:08;13.50;99.90
14170;DHT22;63889;50.596;8.690;2023-04-29T02:28:35;13.40;99.90
14170;DHT22;63889;50.596;8.690;2023-04-29T02:31:01;13.40;99.90
14170;DHT22;63889;50.596;8.690;2023-04-29T02:33:27;13.40;99.90
14170;DHT22;63889;50.596;8.690;2023-04-29T02:35:52;13.40;99.90
14170;DHT22;63889;50.596;8.690;2023-04-29T02:38:18;13.40;99.90
14170;DHT22;63889;50.596;8.690;2023-04-29T02:40:44;13.40;99.90
14170;DHT22;63889;50.596;8.690;2023-04-29T02:43:10;13.40;99.90
14170;DHT22;63889;50.596;8.690;2023-04-29T02:45:37;13.40;99.90
14170;DHT22;63889;50.596;8.690;2023-04-29T02:48:03;13.40;99.90
14170;DHT22;63889;50.596;8.690;2023-04-29T02:50:29;13.40;99.90
14170;DHT22;63889;50.596;8.690;2023-04-29T02:52:54;13.30;99.90
14170;DHT22;63889;50.596;8.690;2023-04-29T02:55:20;13.30;99.90
14170;DHT22;63889;50.596;8.690;2023-04-29T02:57:46;13.30;99.90
14170;DHT22;63889;50.596;8.690;2023-04-29T03:00:12;13.30;99.90
14170;DHT22;63889;50.596;8.690;2023-04-29T03:02:37;13.20;99.90
14170;DHT22;63889;50.596;8.690;2023-04-29T03:05:04;13.20;99.90
14170;DHT22;63889;50.596;8.690;2023-04-29T03:07:30;13.30;99.90
14170;DHT22;63889;50.596;8.690;2023-04-29T03:09:55;13.30;99.90
14170;DHT22;63889;50.596;8.690;2023-04-29T03:12:21;13.10;99.90
14170;DHT22;63889;50.596;8.690;2023-04-29T03:14:47;13.10;99.90
14170;DHT22;63889;50.596;8.690;2023-04-29T03:17:13;13.10;99.90
14170;DHT22;63889;50.596;8.690;2023-04-29T03:19:40;13.00;99.90
14170;DHT22;63889;50.596;8.690;2023-04-29T03:22:06;13.10;99.90
14170;DHT22;63889;50.596;8.690;2023-04-29T03:24:34;13.00;99.90
14170;DHT22;63889;50.596;8.690;2023-04-29T03:27:00;13.10;99.90
14170;DHT22;63889;50.596;8.690;2023-04-29T03:29:25;13.10;99.90
14170;DHT22;63889;50.596;8.690;2023-04-29T03:31:52;13.00;99.90
14170;DHT22;63889;50.596;8.690;2023-04-29T03:34:18;13.00;99.90
14170;DHT22;63889;50.596;8.690;2023-04-29T03:36:44;13.00;99.90
14170;DHT22;63889;50.596;8.690;2023-04-29T03:39:09;13.00;99.90
14170;DHT22;63889;50.596;8.690;2023-04-29T03:41:36;12.90;99.90
14170;DHT22;63889;50.596;8.690;2023-04-29T03:44:02;12.80;99.90
14170;DHT22;63889;50.596;8.690;2023-04-29T03:46:28;12.80;99.90
14170;DHT22;63889;50.596;8.690;2023-04-29T03:48:54;12.70;99.90
14170;DHT22;63889;50.596;8.690;2023-04-29T03:51:22;12.70;99.90
14170;DHT22;63889;50.596;8.690;2023-04-29T03:53:47;12.70;99.90
14170;DHT22;63889;50.596;8.690;2023-04-29T03:56:13;12.70;99.90
14170;DHT22;63889;50.596;8.690;2023-04-29T03:58:38;12.70;99.90
14170;DHT22;63889;50.596;8.690;2023-04-29T04:01:04;12.70;99.90
14170;DHT22;63889;50.596;8.690;2023-04-29T04:03:29;12.60;99.90
14170;DHT22;63889;50.596;8.690;2023-04-29T04:05:55;12.70;99.90
14170;DHT22;63889;50.596;8.690;2023-04-29T04:08:21;12.70;99.90
14170;DHT22;63889;50.596;8.690;2023-04-29T04:10:46;12.70;99.90
14170;DHT22;63889;50.596;8.690;2023-04-29T04:13:12;12.60;99.90
14170;DHT22;63889;50.596;8.690;2023-04-29T04:15:38;12.60;99.90
14170;DHT22;63889;50.596;8.690;2023-04-29T04:18:04;12.60;99.90
14170;DHT22;63889;50.596;8.690;2023-04-29T04:20:30;12.70;99.90
14170;DHT22;63889;50.596;8.690;2023-04-29T04:22:56;12.70;99.90
14170;DHT22;63889;50.596;8.690;2023-04-29T04:25:22;12.80;99.90
14170;DHT22;63889;50.596;8.690;2023-04-29T04:27:47;12.90;99.90
14170;DHT22;63889;50.596;8.690;2023-04-29T04:30:13;13.00;99.90
14170;DHT22;63889;50.596;8.690;2023-04-29T04:32:38;13.00;99.90
14170;DHT22;63889;50.596;8.690;2023-04-29T04:35:05;13.10;99.90
14170;DHT22;63889;50.596;8.690;2023-04-29T04:37:31;13.10;99.90
14170;DHT22;63889;50.596;8.690;2023-04-29T04:39:57;13.10;99.90
14170;DHT22;63889;50.596;8.690;2023-04-29T04:42:22;13.00;99.90
14170;DHT22;63889;50.596;8.690;2023-04-29T04:44:48;13.10;99.90
14170;DHT22;63889;50.596;8.690;2023-04-29T04:47:13;13.00;99.90
14170;DHT22;63889;50.596;8.690;2023-04-29T04:49:39;12.90;99.90
14170;DHT22;63889;50.596;8.690;2023-04-29T04:52:04;12.90;99.90
14170;DHT22;63889;50.596;8.690;2023-04-29T04:54:30;12.90;99.90
14170;DHT22;63889;50.596;8.690;2023-04-29T04:56:56;12.90;99.90
14170;DHT22;63889;50.596;8.690;2023-04-29T04:59:21;13.00;99.90
14170;DHT22;63889;50.596;8.690;2023-04-29T05:01:47;13.00;99.90
14170;DHT22;63889;50.596;8.690;2023-04-29T05:04:13;13.00;99.90
14170;DHT22;63889;50.596;8.690;2023-04-29T05:06:39;13.00;99.90
14170;DHT22;63889;50.596;8.690;2023-04-29T05:09:05;13.10;99.90
14170;DHT22;63889;50.596;8.690;2023-04-29T05:11:31;13.10;99.90
14170;DHT22;63889;50.596;8.690;2023-04-29T05:13:57;13.20;99.90
14170;DHT22;63889;50.596;8.690;2023-04-29T05:16:22;13.10;99.90
14170;DHT22;63889;50.596;8.690;2023-04-29T05:18:48;13.10;99.90
14170;DHT22;63889;50.596;8.690;2023-04-29T05:21:13;13.10;99.90
14170;DHT22;63889;50.596;8.690;2023-04-29T05:23:39;12.90;99.90
14170;DHT22;63889;50.596;8.690;2023-04-29T05:26:04;13.00;99.90
14170;DHT22;63889;50.596;8.690;2023-04-29T05:28:30;13.00;99.90
14170;DHT22;63889;50.596;8.690;2023-04-29T05:30:56;13.00;99.90
14170;DHT22;63889;50.596;8.690;2023-04-29T05:33:21;12.90;99.90
14170;DHT22;63889;50.596;8.690;2023-04-29T05:35:47;12.90;99.90
14170;DHT22;63889;50.596;8.690;2023-04-29T05:38:12;13.00;99.90
14170;DHT22;63889;50.596;8.690;2023-04-29T05:40:38;13.10;99.90
14170;DHT22;63889;50.596;8.690;2023-04-29T05:43:04;13.10;99.90
14170;DHT22;63889;50.596;8.690;2023-04-29T05:45:30;13.10;99.90
14170;DHT22;63889;50.596;8.690;2023-04-29T05:47:55;13.10;99.90
14170;DHT22;63889;50.596;8.690;2023-04-29T05:50:21;13.10;99.90
14170;DHT22;63889;50.596;8.690;2023-04-29T05:52:47;13.00;99.90
14170;DHT22;63889;50.596;8.690;2023-04-29T05:55:13;13.10;99.90
14170;DHT22;63889;50.596;8.690;2023-04-29T05:57:38;13.10;99.90
14170;DHT22;63889;50.596;8.690;2023-04-29T06:00:04;13.00;99.90
14170;DHT22;63889;50.596;8.690;2023-04-29T06:02:31;13.10;99.90
14170;DHT22;63889;50.596;8.690;2023-04-29T06:04:57;13.00;99.90
14170;DHT22;63889;50.596;8.690;2023-04-29T06:07:22;13.10;99.90
14170;DHT22;63889;50.596;8.690;2023-04-29T06:09:49;13.00;99.90
14170;DHT22;63889;50.596;8.690;2023-04-29T06:12:14;13.00;99.90
14170;DHT22;63889;50.596;8.690;2023-04-29T06:14:40;13.00;99.90
14170;DHT22;63889;50.596;8.690;2023-04-29T06:17:06;13.00;99.90
14170;DHT22;63889;50.596;8.690;2023-04-29T06:19:31;13.00;99.90
14170;DHT22;63889;50.596;8.690;2023-04-29T06:21:58;13.00;99.90
14170;DHT22;63889;50.596;8.690;2023-04-29T06:24:23;13.00;99.90
14170;DHT22;63889;50.596;8.690;2023-04-29T06:26:49;13.10;99.90
14170;DHT22;63889;50.596;8.690;2023-04-29T06:29:15;13.10;99.90
14170;DHT22;63889;50.596;8.690;2023-04-29T06:31:40;13.10;99.90
14170;DHT22;63889;50.596;8.690;2023-04-29T06:34:06;13.00;99.90
14170;DHT22;63889;50.596;8.690;2023-04-29T06:36:31;13.00;99.90
14170;DHT22;63889;50.596;8.690;2023-04-29T06:38:57;12.90;99.90
14170;DHT22;63889;50.596;8.690;2023-04-29T06:41:22;12.90;99.90
14170;DHT22;63889;50.596;8.690;2023-04-29T06:43:48;12.90;99.90
14170;DHT22;63889;50.596;8.690;2023-04-29T06:46:14;12.90;99.90
14170;DHT22;63889;50.596;8.690;2023-04-29T06:48:39;13.00;99.90
14170;DHT22;63889;50.596;8.690;2023-04-29T06:51:05;13.00;99.90
14170;DHT22;63889;50.596;8.690;2023-04-29T06:53:30;13.10;99.90
14170;DHT22;63889;50.596;8.690;2023-04-29T06:55:56;13.10;99.90
14170;DHT22;63889;50.596;8.690;2023-04-29T06:58:21;13.10;99.90
14170;DHT22;63889;50.596;8.690;2023-04-29T07:00:48;13.10;99.90
14170;DHT22;63889;50.596;8.690;2023-04-29T07:03:15;13.10;99.90
14170;DHT22;63889;50.596;8.690;2023-04-29T07:05:42;13.00;99.90
14170;DHT22;63889;50.596;8.690;2023-04-29T07:08:11;13.20;99.90
14170;DHT22;63889;50.596;8.690;2023-04-29T07:10:37;13.10;99.90
14170;DHT22;63889;50.596;8.690;2023-04-29T07:13:03;13.10;99.90
14170;DHT22;63889;50.596;8.690;2023-04-29T07:15:29;13.10;99.90
14170;DHT22;63889;50.596;8.690;2023-04-29T07:17:55;13.10;99.90
14170;DHT22;63889;50.596;8.690;2023-04-29T07:20:21;13.10;99.90
14170;DHT22;63889;50.596;8.690;2023-04-29T07:22:47;13.00;99.90
14170;DHT22;63889;50.596;8.690;2023-04-29T07:25:12;13.00;99.90
14170;DHT22;63889;50.596;8.690;2023-04-29T07:27:38;13.00;99.90
14170;DHT22;63889;50.596;8.690;2023-04-29T07:30:05;12.90;99.90
14170;DHT22;63889;50.596;8.690;2023-04-29T07:32:31;13.00;99.90
14170;DHT22;63889;50.596;8.690;2023-04-29T07:34:57;13.20;99.90
14170;DHT22;63889;50.596;8.690;2023-04-29T07:37:23;13.20;99.90
14170;DHT22;63889;50.596;8.690;2023-04-29T07:39:49;13.20;99.90
14170;DHT22;63889;50.596;8.690;2023-04-29T07:42:14;13.10;99.90
14170;DHT22;63889;50.596;8.690;2023-04-29T07:44:40;13.10;99.90
14170;DHT22;63889;50.596;8.690;2023-04-29T07:47:06;13.10;99.90
14170;DHT22;63889;50.596;8.690;2023-04-29T07:49:31;13.20;99.90
14170;DHT22;63889;50.596;8.690;2023-04-29T07:51:57;13.20;99.90
14170;DHT22;63889;50.596;8.690;2023-04-29T07:54:22;13.10;99.90
14170;DHT22;63889;50.596;8.690;2023-04-29T07:56:48;13.10;99.90
14170;DHT22;63889;50.596;8.690;2023-04-29T07:59:14;13.10;99.90
14170;DHT22;63889;50.596;8.690;2023-04-29T08:01:40;13.20;99.90
14170;DHT22;63889;50.596;8.690;2023-04-29T08:04:05;13.30;99.90
14170;DHT22;63889;50.596;8.690;2023-04-29T08:06:32;13.30;99.90
14170;DHT22;63889;50.596;8.690;2023-04-29T08:08:58;13.50;99.90
14170;DHT22;63889;50.596;8.690;2023-04-29T08:11:23;13.50;99.90
14170;DHT22;63889;50.596;8.690;2023-04-29T08:13:50;13.60;99.90
14170;DHT22;63889;50.596;8.690;2023-04-29T08:16:16;13.60;99.90
14170;DHT22;63889;50.596;8.690;2023-04-29T08:18:42;13.60;99.90
14170;DHT22;63889;50.596;8.690;2023-04-29T08:21:07;13.70;99.90
14170;DHT22;63889;50.596;8.690;2023-04-29T08:23:36;13.70;99.90
14170;DHT22;63889;50.596;8.690;2023-04-29T08:26:01;13.70;99.90
14170;DHT22;63889;50.596;8.690;2023-04-29T08:28:27;14.00;99.90
14170;DHT22;63889;50.596;8.690;2023-04-29T08:30:53;14.10;99.90
14170;DHT22;63889;50.596;8.690;2023-04-29T08:33:19;13.90;99.90
14170;DHT22;63889;50.596;8.690;2023-04-29T08:35:45;13.80;99.90
14170;DHT22;63889;50.596;8.690;2023-04-29T08:38:11;14.00;99.90
14170;DHT22;63889;50.596;8.690;2023-04-29T08:40:43;14.10;99.90
14170;DHT22;63889;50.596;8.690;2023-04-29T08:43:11;14.00;99.90
14170;DHT22;63889;50.596;8.690;2023-04-29T08:45:38;14.10;99.90
14170;DHT22;63889;50.596;8.690;2023-04-29T08:48:05;14.10;99.90
14170;DHT22;63889;50.596;8.690;2023-04-29T08:50:37;14.10;99.90
14170;DHT22;63889;50.596;8.690;2023-04-29T08:53:08;14.20;99.90
14170;DHT22;63889;50.596;8.690;2023-04-29T08:55:35;14.50;99.90
14170;DHT22;63889;50.596;8.690;2023-04-29T08:58:02;14.60;99.90
14170;DHT22;63889;50.596;8.690;2023-04-29T09:00:31;14.80;99.90
14170;DHT22;63889;50.596;8.690;2023-04-29T09:02:57;14.90;99.90
14170;DHT22;63889;50.596;8.690;2023-04-29T09:05:25;14.90;99.90
14170;DHT22;63889;50.596;8.690;2023-04-29T09:07:51;14.70;99.90
14170;DHT22;63889;50.596;8.690;2023-04-29T09:10:18;14.70;99.90
14170;DHT22;63889;50.596;8.690;2023-04-29T09:12:44;14.60;99.90
14170;DHT22;63889;50.596;8.690;2023-04-29T09:15:10;14.40;99.90
14170;DHT22;63889;50.596;8.690;2023-04-29T09:22:47;14.40;99.90
14170;DHT22;63889;50.596;8.690;2023-04-29T09:25:13;14.50;99.90
14170;DHT22;63889;50.596;8.690;2023-04-29T09:27:39;14.80;99.90
14170;DHT22;63889;50.596;8.690;2023-04-29T09:30:05;14.90;99.90
14170;DHT22;63889;50.596;8.690;2023-04-29T09:32:31;14.80;99.90
14170;DHT22;63889;50.596;8.690;2023-04-29T09:34:57;14.80;99.90
14170;DHT22;63889;50.596;8.690;2023-04-29T09:37:24;14.70;99.90
14170;DHT22;63889;50.596;8.690;2023-04-29T09:39:50;14.60;99.90
14170;DHT22;63889;50.596;8.690;2023-04-29T09:42:16;14.50;99.90
14170;DHT22;63889;50.596;8.690;2023-04-29T09:44:42;14.50;99.90
14170;DHT22;63889;50.596;8.690;2023-04-29T09:47:09;14.40;99.90
14170;DHT22;63889;50.596;8.690;2023-04-29T09:49:42;14.40;99.90
14170;DHT22;63889;50.596;8.690;2023-04-29T09:52:14;14.40;99.90
14170;DHT22;63889;50.596;8.690;2023-04-29T09:54:41;14.30;99.90
14170;DHT22;63889;50.596;8.690;2023-04-29T09:57:09;14.30;99.90
14170;DHT22;63889;50.596;8.690;2023-04-29T09:59:36;14.30;99.90
14170;DHT22;63889;50.596;8.690;2023-04-29T10:02:22;14.30;99.90
14170;DHT22;63889;50.596;8.690;2023-04-29T10:04:53;14.30;99.90
14170;DHT22;63889;50.596;8.690;2023-04-29T10:07:21;14.40;99.90
14170;DHT22;63889;50.596;8.690;2023-04-29T10:09:47;14.40;99.90
14170;DHT22;63889;50.596;8.690;2023-04-29T10:12:18;14.50;99.90
14170;DHT22;63889;50.596;8.690;2023-04-29T10:17:49;14.50;99.90
14170;DHT22;63889;50.596;8.690;2023-04-29T10:20:24;14.60;99.90
14170;DHT22;63889;50.596;8.690;2023-04-29T10:22:53;14.70;99.90
14170;DHT22;63889;50.596;8.690;2023-04-29T10:25:22;14.80;99.90
14170;DHT22;63889;50.596;8.690;2023-04-29T10:27:48;14.80;99.90
14170;DHT22;63889;50.596;8.690;2023-04-29T10:30:15;14.70;99.90
14170;DHT22;63889;50.596;8.690;2023-04-29T10:32:46;14.70;99.90
14170;DHT22;63889;50.596;8.690;2023-04-29T10:35:14;14.70;99.90
14170;DHT22;63889;50.596;8.690;2023-04-29T10:37:44;14.60;99.90
14170;DHT22;63889;50.596;8.690;2023-04-29T10:40:46;14.60;99.90
14170;DHT22;63889;50.596;8.690;2023-04-29T10:43:12;14.60;99.90
14170;DHT22;63889;50.596;8.690;2023-04-29T10:45:38;14.60;99.90
14170;DHT22;63889;50.596;8.690;2023-04-29T10:53:16;14.70;99.90
14170;DHT22;63889;50.596;8.690;2023-04-29T10:55:46;14.70;99.90
14170;DHT22;63889;50.596;8.690;2023-04-29T10:58:36;14.70;99.90
14170;DHT22;63889;50.596;8.690;2023-04-29T11:01:03;14.80;99.90
14170;DHT22;63889;50.596;8.690;2023-04-29T11:03:45;14.80;99.90
14170;DHT22;63889;50.596;8.690;2023-04-29T11:06:11;15.00;99.90
14170;DHT22;63889;50.596;8.690;2023-04-29T11:08:37;15.00;99.90
14170;DHT22;63889;50.596;8.690;2023-04-29T11:11:07;15.10;99.90
14170;DHT22;63889;50.596;8.690;2023-04-29T11:13:37;15.00;99.90
14170;DHT22;63889;50.596;8.690;2023-04-29T11:16:10;15.00;99.90
14170;DHT22;63889;50.596;8.690;2023-04-29T11:19:02;15.00;99.90
14170;DHT22;63889;50.596;8.690;2023-04-29T11:21:28;15.20;99.90
14170;DHT22;63889;50.596;8.690;2023-04-29T11:23:54;15.20;99.90
14170;DHT22;63889;50.596;8.690;2023-04-29T11:26:19;15.10;99.90
14170;DHT22;63889;50.596;8.690;2023-04-29T11:28:46;15.20;99.90
14170;DHT22;63889;50.596;8.690;2023-04-29T11:31:12;15.20;99.90
14170;DHT22;63889;50.596;8.690;2023-04-29T11:33:38;15.40;99.90
14170;DHT22;63889;50.596;8.690;2023-04-29T11:36:03;15.40;99.90
14170;DHT22;63889;50.596;8.690;2023-04-29T11:38:29;15.50;99.90
14170;DHT22;63889;50.596;8.690;2023-04-29T11:40:56;15.50;99.90
14170;DHT22;63889;50.596;8.690;2023-04-29T11:43:23;15.40;99.90
14170;DHT22;63889;50.596;8.690;2023-04-29T11:45:49;15.30;99.90
14170;DHT22;63889;50.596;8.690;2023-04-29T11:48:23;15.20;99.90
14170;DHT22;63889;50.596;8.690;2023-04-29T11:50:59;15.10;99.90
14170;DHT22;63889;50.596;8.690;2023-04-29T11:53:26;15.00;99.90
14170;DHT22;63889;50.596;8.690;2023-04-29T11:55:54;15.00;99.90
14170;DHT22;63889;50.596;8.690;2023-04-29T11:58:21;15.00;99.90
14170;DHT22;63889;50.596;8.690;2023-04-29T12:00:47;15.10;99.90
14170;DHT22;63889;50.596;8.690;2023-04-29T12:03:17;15.10;99.90
14170;DHT22;63889;50.596;8.690;2023-04-29T12:05:54;15.10;99.90
14170;DHT22;63889;50.596;8.690;2023-04-29T12:08:23;15.10;99.90
14170;DHT22;63889;50.596;8.690;2023-04-29T12:10:50;15.20;99.90
14170;DHT22;63889;50.596;8.690;2023-04-29T12:13:16;15.20;99.90
14170;DHT22;63889;50.596;8.690;2023-04-29T12:15:44;15.30;99.90
14170;DHT22;63889;50.596;8.690;2023-04-29T12:18:11;15.40;99.90
14170;DHT22;63889;50.596;8.690;2023-04-29T12:20:37;15.30;99.90
14170;DHT22;63889;50.596;8.690;2023-04-29T12:23:14;15.10;99.90
14170;DHT22;63889;50.596;8.690;2023-04-29T12:25:40;15.10;99.90
14170;DHT22;63889;50.596;8.690;2023-04-29T12:28:13;15.10;99.90
14170;DHT22;63889;50.596;8.690;2023-04-29T12:30:38;15.10;99.90
14170;DHT22;63889;50.596;8.690;2023-04-29T12:33:07;15.10;99.90
14170;DHT22;63889;50.596;8.690;2023-04-29T12:35:34;15.10;99.90
14170;DHT22;63889;50.596;8.690;2023-04-29T12:37:59;15.10;99.90
14170;DHT22;63889;50.596;8.690;2023-04-29T12:40:25;15.20;99.90
14170;DHT22;63889;50.596;8.690;2023-04-29T12:42:54;15.20;99.90
14170;DHT22;63889;50.596;8.690;2023-04-29T12:45:31;15.10;99.90
14170;DHT22;63889;50.596;8.690;2023-04-29T12:47:57;15.20;99.90
14170;DHT22;63889;50.596;8.690;2023-04-29T12:50:34;15.20;99.90
14170;DHT22;63889;50.596;8.690;2023-04-29T12:53:01;15.10;99.90
14170;DHT22;63889;50.596;8.690;2023-04-29T12:55:26;15.20;99.90
14170;DHT22;63889;50.596;8.690;2023-04-29T12:57:52;15.10;99.90
14170;DHT22;63889;50.596;8.690;2023-04-29T13:00:18;15.10;99.90
14170;DHT22;63889;50.596;8.690;2023-04-29T13:02:45;15.10;99.90
14170;DHT22;63889;50.596;8.690;2023-04-29T13:05:11;15.10;99.90
14170;DHT22;63889;50.596;8.690;2023-04-29T13:07:37;15.10;99.90
14170;DHT22;63889;50.596;8.690;2023-04-29T13:10:03;15.10;99.90
14170;DHT22;63889;50.596;8.690;2023-04-29T13:12:31;15.00;99.90
14170;DHT22;63889;50.596;8.690;2023-04-29T13:14:56;14.90;99.90
14170;DHT22;63889;50.596;8.690;2023-04-29T13:17:22;14.80;99.90
14170;DHT22;63889;50.596;8.690;2023-04-29T13:19:48;14.60;99.90
14170;DHT22;63889;50.596;8.690;2023-04-29T13:22:13;14.50;99.90
14170;DHT22;63889;50.596;8.690;2023-04-29T13:24:39;14.50;99.90
14170;DHT22;63889;50.596;8.690;2023-04-29T13:27:04;14.50;99.90
14170;DHT22;63889;50.596;8.690;2023-04-29T13:29:30;14.60;99.90
14170;DHT22;63889;50.596;8.690;2023-04-29T13:31:55;14.60;99.90
14170;DHT22;63889;50.596;8.690;2023-04-29T13:34:21;14.60;99.90
14170;DHT22;63889;50.596;8.690;2023-04-29T13:36:46;14.60;99.90
14170;DHT22;63889;50.596;8.690;2023-04-29T13:39:12;14.60;99.90
14170;DHT22;63889;50.596;8.690;2023-04-29T13:41:38;14.60;99.90
14170;DHT22;63889;50.596;8.690;2023-04-29T13:44:03;14.50;99.90
14170;DHT22;63889;50.596;8.690;2023-04-29T13:46:29;14.50;99.90
14170;DHT22;63889;50.596;8.690;2023-04-29T13:48:56;14.50;99.90
14170;DHT22;63889;50.596;8.690;2023-04-29T13:51:21;14.40;99.90
14170;DHT22;63889;50.596;8.690;2023-04-29T13:53:47;14.20;99.90
14170;DHT22;63889;50.596;8.690;2023-04-29T13:56:12;14.30;99.90
14170;DHT22;63889;50.596;8.690;2023-04-29T13:58:38;14.10;99.90
14170;DHT22;63889;50.596;8.690;2023-04-29T14:01:06;14.00;99.90
14170;DHT22;63889;50.596;8.690;2023-04-29T14:03:31;14.10;99.90
14170;DHT22;63889;50.596;8.690;2023-04-29T14:05:57;14.10;99.90
14170;DHT22;63889;50.596;8.690;2023-04-29T14:08:22;14.10;99.90
14170;DHT22;63889;50.596;8.690;2023-04-29T14:10:48;14.10;99.90
14170;DHT22;63889;50.596;8.690;2023-04-29T14:13:13;14.10;99.90
14170;DHT22;63889;50.596;8.690;2023-04-29T14:15:39;14.20;99.90
14170;DHT22;63889;50.596;8.690;2023-04-29T14:18:05;14.20;99.90
14170;DHT22;63889;50.596;8.690;2023-04-29T14:20:32;14.10;99.90
14170;DHT22;63889;50.596;8.690;2023-04-29T14:22:58;14.10;99.90
14170;DHT22;63889;50.596;8.690;2023-04-29T14:25:23;14.10;99.90
14170;DHT22;63889;50.596;8.690;2023-04-29T14:27:50;14.20;99.90
14170;DHT22;63889;50.596;8.690;2023-04-29T14:30:15;14.20;99.90
14170;DHT22;63889;50.596;8.690;2023-04-29T14:32:41;14.20;99.90
14170;DHT22;63889;50.596;8.690;2023-04-29T14:35:07;14.30;99.90
14170;DHT22;63889;50.596;8.690;2023-04-29T14:37:32;14.20;99.90
14170;DHT22;63889;50.596;8.690;2023-04-29T14:39:58;14.20;99.90
14170;DHT22;63889;50.596;8.690;2023-04-29T14:42:23;14.30;99.90
14170;DHT22;63889;50.596;8.690;2023-04-29T14:44:49;14.30;99.90
14170;DHT22;63889;50.596;8.690;2023-04-29T14:47:15;14.30;99.90
14170;DHT22;63889;50.596;8.690;2023-04-29T14:49:41;14.40;99.90
14170;DHT22;63889;50.596;8.690;2023-04-29T14:52:07;14.40;99.90
14170;DHT22;63889;50.596;8.690;2023-04-29T14:54:32;14.40;99.90
14170;DHT22;63889;50.596;8.690;2023-04-29T14:56:58;14.30;99.90
14170;DHT22;63889;50.596;8.690;2023-04-29T14:59:23;14.20;99.90
14170;DHT22;63889;50.596;8.690;2023-04-29T15:01:49;14.30;99.90
14170;DHT22;63889;50.596;8.690;2023-04-29T15:04:14;14.20;99.90
14170;DHT22;63889;50.596;8.690;2023-04-29T15:06:40;14.20;99.90
14170;DHT22;63889;50.596;8.690;2023-04-29T15:09:05;14.20;99.90
14170;DHT22;63889;50.596;8.690;2023-04-29T15:11:32;14.20;99.90
14170;DHT22;63889;50.596;8.690;2023-04-29T15:13:57;14.20;99.90
14170;DHT22;63889;50.596;8.690;2023-04-29T15:16:23;14.20;99.90
14170;DHT22;63889;50.596;8.690;2023-04-29T15:18:49;14.20;99.90
14170;DHT22;63889;50.596;8.690;2023-04-29T15:21:14;14.20;99.90
14170;DHT22;63889;50.596;8.690;2023-04-29T15:23:40;14.20;99.90
14170;DHT22;63889;50.596;8.690;2023-04-29T15:26:05;14.20;99.90
14170;DHT22;63889;50.596;8.690;2023-04-29T15:28:32;14.20;99.90
14170;DHT22;63889;50.596;8.690;2023-04-29T15:30:57;14.20;99.90
14170;DHT22;63889;50.596;8.690;2023-04-29T15:33:25;14.20;99.90
14170;DHT22;63889;50.596;8.690;2023-04-29T15:35:51;14.20;99.90
14170;DHT22;63889;50.596;8.690;2023-04-29T15:38:17;14.20;99.90
14170;DHT22;63889;50.596;8.690;2023-04-29T15:40:42;14.20;99.90
14170;DHT22;63889;50.596;8.690;2023-04-29T15:43:08;14.10;99.90
14170;DHT22;63889;50.596;8.690;2023-04-29T15:45:33;14.00;99.90
14170;DHT22;63889;50.596;8.690;2023-04-29T15:47:59;13.90;99.90